sensor_id;sensor_type;location;lat;lon;timestamp;P1;durP1;ratioP1;P2;durP2;ratioP2
58472;SDS011;44775;51.564;5.460;2022-11-02T00:01:38;9.10;;;2.10;;
58472;SDS011;44775;51.564;5.460;2022-11-02T00:04:08;9.75;;;2.08;;
58472;SDS011;44775;51.564;5.460;2022-11-02T00:06:34;10.05;;;1.90;;
58472;SDS011;44775;51.564;5.460;2022-11-02T00:09:00;9.57;;;2.05;;
58472;SDS011;44775;51.564;5.460;2022-11-02T00:11:26;12.70;;;2.15;;
58472;SDS011;44775;51.564;5.460;2022-11-02T00:13:51;9.95;;;1.92;;
58472;SDS011;44775;51.564;5.460;2022-11-02T00:16:17;10.32;;;2.10;;
58472;SDS011;44775;51.564;5.460;2022-11-02T00:18:45;10.20;;;2.15;;
58472;SDS011;44775;51.564;5.460;2022-11-02T00:21:15;10.95;;;2.15;;
58472;SDS011;44775;51.564;5.460;2022-11-02T00:23:42;16.50;;;2.55;;
58472;SDS011;44775;51.564;5.460;2022-11-02T00:26:09;12.98;;;2.30;;
58472;SDS011;44775;51.564;5.460;2022-11-02T00:28:35;9.77;;;1.90;;
58472;SDS011;44775;51.564;5.460;2022-11-02T00:31:01;13.82;;;2.08;;
58472;SDS011;44775;51.564;5.460;2022-11-02T00:33:27;8.77;;;1.95;;
58472;SDS011;44775;51.564;5.460;2022-11-02T00:35:55;8.30;;;1.77;;
58472;SDS011;44775;51.564;5.460;2022-11-02T00:40:46;13.15;;;2.28;;
58472;SDS011;44775;51.564;5.460;2022-11-02T00:43:12;10.27;;;2.10;;
58472;SDS011;44775;51.564;5.460;2022-11-02T00:45:37;10.52;;;1.73;;
58472;SDS011;44775;51.564;5.460;2022-11-02T00:48:03;9.95;;;1.77;;
58472;SDS011;44775;51.564;5.460;2022-11-02T00:50:29;8.88;;;1.70;;
58472;SDS011;44775;51.564;5.460;2022-11-02T00:52:55;8.48;;;1.90;;
58472;SDS011;44775;51.564;5.460;2022-11-02T00:55:20;6.82;;;1.65;;
58472;SDS011;44775;51.564;5.460;2022-11-02T00:57:46;10.13;;;2.50;;
58472;SDS011;44775;51.564;5.460;2022-11-02T01:00:12;9.25;;;1.75;;
58472;SDS011;44775;51.564;5.460;2022-11-02T01:02:38;9.60;;;1.90;;
58472;SDS011;44775;51.564;5.460;2022-11-02T01:05:04;6.95;;;1.85;;
58472;SDS011;44775;51.564;5.460;2022-11-02T01:07:31;6.55;;;1.63;;
58472;SDS011;44775;51.564;5.460;2022-11-02T01:09:56;10.70;;;1.67;;
58472;SDS011;44775;51.564;5.460;2022-11-02T01:12:22;7.22;;;1.95;;
58472;SDS011;44775;51.564;5.460;2022-11-02T01:14:47;6.15;;;1.60;;
58472;SDS011;44775;51.564;5.460;2022-11-02T01:17:14;6.78;;;1.70;;
58472;SDS011;44775;51.564;5.460;2022-11-02T01:19:40;6.85;;;1.75;;
58472;SDS011;44775;51.564;5.460;2022-11-02T01:22:06;5.32;;;1.50;;
58472;SDS011;44775;51.564;5.460;2022-11-02T01:24:31;5.63;;;1.63;;
58472;SDS011;44775;51.564;5.460;2022-11-02T01:26:57;5.35;;;1.70;;
58472;SDS011;44775;51.564;5.460;2022-11-02T01:29:22;6.70;;;1.40;;
58472;SDS011;44775;51.564;5.460;2022-11-02T01:31:48;8.45;;;1.73;;
58472;SDS011;44775;51.564;5.460;2022-11-02T01:34:14;8.75;;;1.63;;
58472;SDS011;44775;51.564;5.460;2022-11-02T01:36:39;8.77;;;1.80;;
58472;SDS011;44775;51.564;5.460;2022-11-02T01:39:05;12.80;;;2.05;;
58472;SDS011;44775;51.564;5.460;2022-11-02T01:41:31;8.80;;;1.50;;
58472;SDS011;44775;51.564;5.460;2022-11-02T01:43:57;6.00;;;1.65;;
58472;SDS011;44775;51.564;5.460;2022-11-02T01:46:33;5.70;;;1.35;;
58472;SDS011;44775;51.564;5.460;2022-11-02T01:49:10;7.93;;;1.98;;
58472;SDS011;44775;51.564;5.460;2022-11-02T01:51:42;6.82;;;1.77;;
58472;SDS011;44775;51.564;5.460;2022-11-02T01:54:13;8.65;;;1.50;;
58472;SDS011;44775;51.564;5.460;2022-11-02T01:56:45;6.10;;;1.52;;
58472;SDS011;44775;51.564;5.460;2022-11-02T01:59:18;6.85;;;1.80;;
58472;SDS011;44775;51.564;5.460;2022-11-02T02:01:48;8.77;;;1.35;;
58472;SDS011;44775;51.564;5.460;2022-11-02T02:04:13;8.32;;;1.75;;
58472;SDS011;44775;51.564;5.460;2022-11-02T02:06:39;8.05;;;1.63;;
58472;SDS011;44775;51.564;5.460;2022-11-02T02:09:06;9.65;;;1.50;;
58472;SDS011;44775;51.564;5.460;2022-11-02T02:11:34;9.52;;;1.70;;
58472;SDS011;44775;51.564;5.460;2022-11-02T02:22:12;3.65;;;1.30;;
58472;SDS011;44775;51.564;5.460;2022-11-02T02:30:15;9.60;;;1.73;;
58472;SDS011;44775;51.564;5.460;2022-11-02T02:32:46;9.32;;;2.00;;
58472;SDS011;44775;51.564;5.460;2022-11-02T02:35:34;12.10;;;1.85;;
58472;SDS011;44775;51.564;5.460;2022-11-02T02:38:10;6.88;;;1.60;;
58472;SDS011;44775;51.564;5.460;2022-11-02T02:40:47;7.68;;;1.48;;
58472;SDS011;44775;51.564;5.460;2022-11-02T02:43:33;9.32;;;1.83;;
58472;SDS011;44775;51.564;5.460;2022-11-02T02:48:42;10.23;;;1.77;;
58472;SDS011;44775;51.564;5.460;2022-11-02T02:51:11;10.07;;;1.90;;
58472;SDS011;44775;51.564;5.460;2022-11-02T02:54:01;7.90;;;1.77;;
58472;SDS011;44775;51.564;5.460;2022-11-02T02:56:29;8.75;;;2.05;;
58472;SDS011;44775;51.564;5.460;2022-11-02T02:59:02;11.40;;;1.75;;
58472;SDS011;44775;51.564;5.460;2022-11-02T03:01:30;11.35;;;2.10;;
58472;SDS011;44775;51.564;5.460;2022-11-02T03:03:56;13.02;;;2.17;;
58472;SDS011;44775;51.564;5.460;2022-11-02T03:06:26;12.93;;;2.38;;
58472;SDS011;44775;51.564;5.460;2022-11-02T03:11:31;7.95;;;1.70;;
58472;SDS011;44775;51.564;5.460;2022-11-02T03:30:16;10.10;;;2.30;;
58472;SDS011;44775;51.564;5.460;2022-11-02T03:35:24;9.98;;;1.70;;
58472;SDS011;44775;51.564;5.460;2022-11-02T03:38:16;10.77;;;1.90;;
58472;SDS011;44775;51.564;5.460;2022-11-02T03:40:46;14.07;;;2.25;;
58472;SDS011;44775;51.564;5.460;2022-11-02T03:43:14;13.88;;;2.40;;
58472;SDS011;44775;51.564;5.460;2022-11-02T03:45:42;11.15;;;2.33;;
58472;SDS011;44775;51.564;5.460;2022-11-02T03:48:13;10.95;;;2.22;;
58472;SDS011;44775;51.564;5.460;2022-11-02T03:50:42;13.23;;;2.10;;
58472;SDS011;44775;51.564;5.460;2022-11-02T03:55:49;11.35;;;2.03;;
58472;SDS011;44775;51.564;5.460;2022-11-02T03:58:19;15.48;;;2.67;;
58472;SDS011;44775;51.564;5.460;2022-11-02T04:00:58;14.23;;;2.67;;
58472;SDS011;44775;51.564;5.460;2022-11-02T04:03:26;11.80;;;2.05;;
58472;SDS011;44775;51.564;5.460;2022-11-02T04:05:54;14.18;;;2.22;;
58472;SDS011;44775;51.564;5.460;2022-11-02T04:08:24;12.05;;;2.00;;
58472;SDS011;44775;51.564;5.460;2022-11-02T04:10:56;11.32;;;2.28;;
58472;SDS011;44775;51.564;5.460;2022-11-02T04:13:40;12.95;;;2.22;;
58472;SDS011;44775;51.564;5.460;2022-11-02T04:16:24;10.55;;;2.30;;
58472;SDS011;44775;51.564;5.460;2022-11-02T04:18:50;7.68;;;1.73;;
58472;SDS011;44775;51.564;5.460;2022-11-02T04:21:34;13.07;;;2.42;;
58472;SDS011;44775;51.564;5.460;2022-11-02T04:23:59;8.70;;;1.90;;
58472;SDS011;44775;51.564;5.460;2022-11-02T04:26:57;14.68;;;2.22;;
58472;SDS011;44775;51.564;5.460;2022-11-02T04:29:22;14.85;;;2.60;;
58472;SDS011;44775;51.564;5.460;2022-11-02T04:31:47;12.55;;;2.28;;
58472;SDS011;44775;51.564;5.460;2022-11-02T04:34:13;16.10;;;2.92;;
58472;SDS011;44775;51.564;5.460;2022-11-02T04:36:38;15.98;;;2.60;;
58472;SDS011;44775;51.564;5.460;2022-11-02T04:39:05;10.45;;;2.03;;
58472;SDS011;44775;51.564;5.460;2022-11-02T04:41:30;12.73;;;2.30;;
58472;SDS011;44775;51.564;5.460;2022-11-02T04:44:08;16.23;;;2.28;;
58472;SDS011;44775;51.564;5.460;2022-11-02T04:46:35;11.90;;;2.15;;
58472;SDS011;44775;51.564;5.460;2022-11-02T04:49:02;14.20;;;2.03;;
58472;SDS011;44775;51.564;5.460;2022-11-02T04:51:28;10.90;;;1.70;;
58472;SDS011;44775;51.564;5.460;2022-11-02T04:53:55;14.13;;;2.72;;
58472;SDS011;44775;51.564;5.460;2022-11-02T04:56:21;18.75;;;2.30;;
58472;SDS011;44775;51.564;5.460;2022-11-02T04:58:51;9.15;;;1.83;;
58472;SDS011;44775;51.564;5.460;2022-11-02T05:01:19;10.88;;;2.10;;
58472;SDS011;44775;51.564;5.460;2022-11-02T05:03:46;16.08;;;2.55;;
58472;SDS011;44775;51.564;5.460;2022-11-02T05:06:15;12.85;;;2.28;;
58472;SDS011;44775;51.564;5.460;2022-11-02T05:08:42;12.35;;;2.40;;
58472;SDS011;44775;51.564;5.460;2022-11-02T05:11:08;11.93;;;2.25;;
58472;SDS011;44775;51.564;5.460;2022-11-02T05:13:34;11.52;;;2.42;;
58472;SDS011;44775;51.564;5.460;2022-11-02T05:16:01;13.45;;;2.53;;
58472;SDS011;44775;51.564;5.460;2022-11-02T05:18:27;12.85;;;2.03;;
58472;SDS011;44775;51.564;5.460;2022-11-02T05:20:54;12.95;;;2.45;;
58472;SDS011;44775;51.564;5.460;2022-11-02T05:23:21;9.20;;;1.90;;
58472;SDS011;44775;51.564;5.460;2022-11-02T05:25:51;12.35;;;1.95;;
58472;SDS011;44775;51.564;5.460;2022-11-02T05:28:21;9.02;;;2.00;;
58472;SDS011;44775;51.564;5.460;2022-11-02T05:30:47;8.77;;;1.90;;
58472;SDS011;44775;51.564;5.460;2022-11-02T05:33:13;14.68;;;1.90;;
58472;SDS011;44775;51.564;5.460;2022-11-02T05:35:38;10.07;;;2.30;;
58472;SDS011;44775;51.564;5.460;2022-11-02T05:38:04;13.30;;;2.28;;
58472;SDS011;44775;51.564;5.460;2022-11-02T05:40:29;17.48;;;2.47;;
58472;SDS011;44775;51.564;5.460;2022-11-02T05:42:58;9.38;;;1.90;;
58472;SDS011;44775;51.564;5.460;2022-11-02T05:45:24;13.63;;;2.38;;
58472;SDS011;44775;51.564;5.460;2022-11-02T05:47:50;10.95;;;2.33;;
58472;SDS011;44775;51.564;5.460;2022-11-02T05:50:15;14.43;;;2.47;;
58472;SDS011;44775;51.564;5.460;2022-11-02T05:52:41;8.40;;;1.65;;
58472;SDS011;44775;51.564;5.460;2022-11-02T05:55:06;9.60;;;1.70;;
58472;SDS011;44775;51.564;5.460;2022-11-02T05:57:32;13.77;;;2.20;;
58472;SDS011;44775;51.564;5.460;2022-11-02T05:59:57;13.18;;;2.20;;
58472;SDS011;44775;51.564;5.460;2022-11-02T06:02:23;15.70;;;2.72;;
58472;SDS011;44775;51.564;5.460;2022-11-02T06:04:48;14.73;;;2.17;;
58472;SDS011;44775;51.564;5.460;2022-11-02T06:07:14;11.80;;;2.10;;
58472;SDS011;44775;51.564;5.460;2022-11-02T06:09:39;14.57;;;1.88;;
58472;SDS011;44775;51.564;5.460;2022-11-02T06:12:05;10.38;;;1.98;;
58472;SDS011;44775;51.564;5.460;2022-11-02T06:14:30;11.30;;;2.10;;
58472;SDS011;44775;51.564;5.460;2022-11-02T06:16:56;7.70;;;2.25;;
58472;SDS011;44775;51.564;5.460;2022-11-02T06:19:21;13.77;;;2.15;;
58472;SDS011;44775;51.564;5.460;2022-11-02T06:21:47;11.68;;;1.92;;
58472;SDS011;44775;51.564;5.460;2022-11-02T06:24:12;8.65;;;1.83;;
58472;SDS011;44775;51.564;5.460;2022-11-02T06:26:37;15.32;;;2.03;;
58472;SDS011;44775;51.564;5.460;2022-11-02T06:29:03;14.27;;;2.28;;
58472;SDS011;44775;51.564;5.460;2022-11-02T06:31:28;10.65;;;1.85;;
58472;SDS011;44775;51.564;5.460;2022-11-02T06:33:54;9.25;;;2.40;;
58472;SDS011;44775;51.564;5.460;2022-11-02T06:36:19;7.80;;;1.80;;
58472;SDS011;44775;51.564;5.460;2022-11-02T06:38:45;9.50;;;2.10;;
58472;SDS011;44775;51.564;5.460;2022-11-02T06:41:10;12.20;;;1.90;;
58472;SDS011;44775;51.564;5.460;2022-11-02T06:43:36;10.77;;;2.17;;
58472;SDS011;44775;51.564;5.460;2022-11-02T06:46:02;11.40;;;2.13;;
58472;SDS011;44775;51.564;5.460;2022-11-02T06:48:29;11.82;;;1.90;;
58472;SDS011;44775;51.564;5.460;2022-11-02T06:50:55;10.68;;;2.20;;
58472;SDS011;44775;51.564;5.460;2022-11-02T06:53:21;13.48;;;2.28;;
58472;SDS011;44775;51.564;5.460;2022-11-02T06:55:50;17.80;;;2.38;;
58472;SDS011;44775;51.564;5.460;2022-11-02T06:58:16;12.68;;;2.00;;
58472;SDS011;44775;51.564;5.460;2022-11-02T07:00:42;10.98;;;1.92;;
58472;SDS011;44775;51.564;5.460;2022-11-02T07:03:08;8.60;;;1.75;;
58472;SDS011;44775;51.564;5.460;2022-11-02T07:05:34;10.75;;;2.40;;
58472;SDS011;44775;51.564;5.460;2022-11-02T07:08:00;11.23;;;1.77;;
58472;SDS011;44775;51.564;5.460;2022-11-02T07:10:26;13.57;;;2.30;;
58472;SDS011;44775;51.564;5.460;2022-11-02T07:12:52;11.18;;;2.03;;
58472;SDS011;44775;51.564;5.460;2022-11-02T07:15:22;10.57;;;1.85;;
58472;SDS011;44775;51.564;5.460;2022-11-02T07:17:49;11.82;;;2.08;;
58472;SDS011;44775;51.564;5.460;2022-11-02T07:20:15;17.63;;;2.50;;
58472;SDS011;44775;51.564;5.460;2022-11-02T07:22:41;12.15;;;2.10;;
58472;SDS011;44775;51.564;5.460;2022-11-02T07:25:07;8.45;;;2.10;;
58472;SDS011;44775;51.564;5.460;2022-11-02T07:27:38;13.32;;;2.00;;
58472;SDS011;44775;51.564;5.460;2022-11-02T07:30:05;9.02;;;2.10;;
58472;SDS011;44775;51.564;5.460;2022-11-02T07:32:37;13.60;;;2.20;;
58472;SDS011;44775;51.564;5.460;2022-11-02T07:35:04;14.35;;;2.38;;
58472;SDS011;44775;51.564;5.460;2022-11-02T07:37:30;12.23;;;2.22;;
58472;SDS011;44775;51.564;5.460;2022-11-02T07:39:56;14.80;;;1.92;;
58472;SDS011;44775;51.564;5.460;2022-11-02T07:42:21;10.35;;;1.90;;
58472;SDS011;44775;51.564;5.460;2022-11-02T07:44:47;14.40;;;2.20;;
58472;SDS011;44775;51.564;5.460;2022-11-02T07:47:12;13.35;;;2.10;;
58472;SDS011;44775;51.564;5.460;2022-11-02T07:49:38;17.40;;;2.63;;
58472;SDS011;44775;51.564;5.460;2022-11-02T07:52:03;11.05;;;2.30;;
58472;SDS011;44775;51.564;5.460;2022-11-02T07:54:28;9.95;;;1.88;;
58472;SDS011;44775;51.564;5.460;2022-11-02T07:56:54;9.75;;;2.08;;
58472;SDS011;44775;51.564;5.460;2022-11-02T07:59:19;11.25;;;1.70;;
58472;SDS011;44775;51.564;5.460;2022-11-02T08:01:46;13.13;;;2.10;;
58472;SDS011;44775;51.564;5.460;2022-11-02T08:04:11;12.05;;;2.00;;
58472;SDS011;44775;51.564;5.460;2022-11-02T08:06:37;15.43;;;2.38;;
58472;SDS011;44775;51.564;5.460;2022-11-02T08:09:02;13.73;;;2.00;;
58472;SDS011;44775;51.564;5.460;2022-11-02T08:11:27;15.25;;;2.22;;
58472;SDS011;44775;51.564;5.460;2022-11-02T08:13:53;12.73;;;1.98;;
58472;SDS011;44775;51.564;5.460;2022-11-02T08:16:18;11.77;;;2.35;;
58472;SDS011;44775;51.564;5.460;2022-11-02T08:18:44;11.38;;;2.00;;
58472;SDS011;44775;51.564;5.460;2022-11-02T08:21:09;9.43;;;2.25;;
58472;SDS011;44775;51.564;5.460;2022-11-02T08:23:35;17.20;;;2.28;;
58472;SDS011;44775;51.564;5.460;2022-11-02T08:26:00;12.38;;;2.00;;
58472;SDS011;44775;51.564;5.460;2022-11-02T08:28:27;9.48;;;2.10;;
58472;SDS011;44775;51.564;5.460;2022-11-02T08:30:56;15.90;;;2.88;;
58472;SDS011;44775;51.564;5.460;2022-11-02T08:33:22;8.70;;;2.10;;
58472;SDS011;44775;51.564;5.460;2022-11-02T08:35:48;7.95;;;1.67;;
58472;SDS011;44775;51.564;5.460;2022-11-02T08:38:14;14.23;;;1.90;;
58472;SDS011;44775;51.564;5.460;2022-11-02T08:40:39;10.60;;;1.90;;
58472;SDS011;44775;51.564;5.460;2022-11-02T08:43:06;9.80;;;1.83;;
58472;SDS011;44775;51.564;5.460;2022-11-02T08:45:37;10.80;;;2.10;;
58472;SDS011;44775;51.564;5.460;2022-11-02T08:48:04;12.95;;;2.30;;
58472;SDS011;44775;51.564;5.460;2022-11-02T08:50:30;12.15;;;2.28;;
58472;SDS011;44775;51.564;5.460;2022-11-02T08:52:56;11.32;;;1.88;;
58472;SDS011;44775;51.564;5.460;2022-11-02T08:55:21;13.77;;;2.33;;
58472;SDS011;44775;51.564;5.460;2022-11-02T08:57:47;12.00;;;2.05;;
58472;SDS011;44775;51.564;5.460;2022-11-02T09:00:16;9.60;;;1.65;;
58472;SDS011;44775;51.564;5.460;2022-11-02T09:02:42;11.63;;;2.22;;
58472;SDS011;44775;51.564;5.460;2022-11-02T09:05:08;11.55;;;2.45;;
58472;SDS011;44775;51.564;5.460;2022-11-02T09:07:34;10.98;;;2.45;;
58472;SDS011;44775;51.564;5.460;2022-11-02T09:10:00;11.13;;;2.28;;
58472;SDS011;44775;51.564;5.460;2022-11-02T09:12:25;11.30;;;2.03;;
58472;SDS011;44775;51.564;5.460;2022-11-02T09:14:51;10.38;;;1.92;;
58472;SDS011;44775;51.564;5.460;2022-11-02T09:17:16;15.40;;;2.22;;
58472;SDS011;44775;51.564;5.460;2022-11-02T09:19:42;10.95;;;2.03;;
58472;SDS011;44775;51.564;5.460;2022-11-02T09:22:07;14.90;;;2.60;;
58472;SDS011;44775;51.564;5.460;2022-11-02T09:24:33;9.93;;;2.08;;
58472;SDS011;44775;51.564;5.460;2022-11-02T09:26:58;10.48;;;1.90;;
58472;SDS011;44775;51.564;5.460;2022-11-02T09:29:24;11.38;;;1.70;;
58472;SDS011;44775;51.564;5.460;2022-11-02T09:31:49;10.45;;;1.90;;
58472;SDS011;44775;51.564;5.460;2022-11-02T09:34:15;10.45;;;2.17;;
58472;SDS011;44775;51.564;5.460;2022-11-02T09:36:40;9.82;;;2.15;;
58472;SDS011;44775;51.564;5.460;2022-11-02T09:39:06;10.75;;;2.10;;
58472;SDS011;44775;51.564;5.460;2022-11-02T09:41:46;12.85;;;2.67;;
58472;SDS011;44775;51.564;5.460;2022-11-02T09:44:29;16.40;;;3.03;;
58472;SDS011;44775;51.564;5.460;2022-11-02T09:47:09;9.23;;;2.22;;
58472;SDS011;44775;51.564;5.460;2022-11-02T09:49:36;10.80;;;2.08;;
58472;SDS011;44775;51.564;5.460;2022-11-02T09:52:02;11.32;;;2.10;;
58472;SDS011;44775;51.564;5.460;2022-11-02T09:57:09;10.30;;;2.08;;
58472;SDS011;44775;51.564;5.460;2022-11-02T09:59:39;12.70;;;2.42;;
58472;SDS011;44775;51.564;5.460;2022-11-02T10:02:21;14.40;;;2.10;;
58472;SDS011;44775;51.564;5.460;2022-11-02T10:10:31;16.58;;;2.60;;
58472;SDS011;44775;51.564;5.460;2022-11-02T10:13:02;8.07;;;2.17;;
58472;SDS011;44775;51.564;5.460;2022-11-02T10:15:48;12.27;;;2.33;;
58472;SDS011;44775;51.564;5.460;2022-11-02T10:18:23;9.85;;;2.25;;
58472;SDS011;44775;51.564;5.460;2022-11-02T10:20:52;10.52;;;1.70;;
58472;SDS011;44775;51.564;5.460;2022-11-02T10:23:30;13.23;;;2.28;;
58472;SDS011;44775;51.564;5.460;2022-11-02T10:28:26;14.70;;;2.50;;
58472;SDS011;44775;51.564;5.460;2022-11-02T10:30:55;10.48;;;2.03;;
58472;SDS011;44775;51.564;5.460;2022-11-02T10:33:25;10.65;;;1.90;;
58472;SDS011;44775;51.564;5.460;2022-11-02T10:43:51;16.65;;;2.33;;
58472;SDS011;44775;51.564;5.460;2022-11-02T10:52:15;10.00;;;2.05;;
58472;SDS011;44775;51.564;5.460;2022-11-02T10:54:42;11.95;;;2.13;;
58472;SDS011;44775;51.564;5.460;2022-11-02T10:57:11;11.38;;;2.10;;
58472;SDS011;44775;51.564;5.460;2022-11-02T10:59:38;12.18;;;1.80;;
58472;SDS011;44775;51.564;5.460;2022-11-02T11:02:08;10.63;;;2.17;;
58472;SDS011;44775;51.564;5.460;2022-11-02T11:04:36;10.68;;;1.80;;
58472;SDS011;44775;51.564;5.460;2022-11-02T11:07:22;7.85;;;1.80;;
58472;SDS011;44775;51.564;5.460;2022-11-02T11:09:54;8.15;;;2.03;;
58472;SDS011;44775;51.564;5.460;2022-11-02T11:12:25;10.65;;;1.73;;
58472;SDS011;44775;51.564;5.460;2022-11-02T11:14:56;13.30;;;2.00;;
58472;SDS011;44775;51.564;5.460;2022-11-02T11:17:27;9.25;;;1.95;;
58472;SDS011;44775;51.564;5.460;2022-11-02T11:19:56;10.68;;;2.00;;
58472;SDS011;44775;51.564;5.460;2022-11-02T11:22:34;7.80;;;1.38;;
58472;SDS011;44775;51.564;5.460;2022-11-02T11:27:53;10.75;;;1.92;;
58472;SDS011;44775;51.564;5.460;2022-11-02T11:30:28;7.25;;;1.98;;
58472;SDS011;44775;51.564;5.460;2022-11-02T11:32:54;9.75;;;1.67;;
58472;SDS011;44775;51.564;5.460;2022-11-02T11:35:21;10.65;;;2.00;;
58472;SDS011;44775;51.564;5.460;2022-11-02T11:37:50;9.05;;;1.80;;
58472;SDS011;44775;51.564;5.460;2022-11-02T11:40:21;9.05;;;1.67;;
58472;SDS011;44775;51.564;5.460;2022-11-02T11:42:48;7.93;;;1.80;;
58472;SDS011;44775;51.564;5.460;2022-11-02T11:45:21;10.45;;;1.73;;
58472;SDS011;44775;51.564;5.460;2022-11-02T11:47:58;7.03;;;1.80;;
58472;SDS011;44775;51.564;5.460;2022-11-02T11:50:25;8.85;;;1.60;;
58472;SDS011;44775;51.564;5.460;2022-11-02T11:58:33;8.77;;;1.60;;
58472;SDS011;44775;51.564;5.460;2022-11-02T12:03:30;11.50;;;1.90;;
58472;SDS011;44775;51.564;5.460;2022-11-02T12:06:01;9.05;;;1.55;;
58472;SDS011;44775;51.564;5.460;2022-11-02T12:11:38;8.80;;;1.80;;
58472;SDS011;44775;51.564;5.460;2022-11-02T12:17:08;10.20;;;1.80;;
58472;SDS011;44775;51.564;5.460;2022-11-02T12:44:06;10.77;;;2.27;;
58472;SDS011;44775;51.564;5.460;2022-11-02T12:46:55;9.43;;;1.98;;
58472;SDS011;44775;51.564;5.460;2022-11-02T12:57:49;10.57;;;2.05;;
58472;SDS011;44775;51.564;5.460;2022-11-02T13:00:23;12.05;;;2.20;;
58472;SDS011;44775;51.564;5.460;2022-11-02T13:03:01;13.68;;;2.20;;
58472;SDS011;44775;51.564;5.460;2022-11-02T13:05:38;11.32;;;2.08;;
58472;SDS011;44775;51.564;5.460;2022-11-02T13:10:54;11.60;;;2.00;;
58472;SDS011;44775;51.564;5.460;2022-11-02T13:13:55;11.57;;;2.00;;
58472;SDS011;44775;51.564;5.460;2022-11-02T13:16:15;12.18;;;1.95;;
58472;SDS011;44775;51.564;5.460;2022-11-02T13:21:15;9.43;;;1.85;;
58472;SDS011;44775;51.564;5.460;2022-11-02T13:23:52;12.63;;;2.13;;
58472;SDS011;44775;51.564;5.460;2022-11-02T13:29:08;13.73;;;2.42;;
58472;SDS011;44775;51.564;5.460;2022-11-02T13:31:43;10.80;;;2.10;;
58472;SDS011;44775;51.564;5.460;2022-11-02T13:34:16;10.05;;;2.00;;
58472;SDS011;44775;51.564;5.460;2022-11-02T13:36:48;9.88;;;1.73;;
58472;SDS011;44775;51.564;5.460;2022-11-02T13:39:18;10.57;;;1.77;;
58472;SDS011;44775;51.564;5.460;2022-11-02T13:42:01;13.02;;;2.00;;
58472;SDS011;44775;51.564;5.460;2022-11-02T13:47:11;9.27;;;2.35;;
58472;SDS011;44775;51.564;5.460;2022-11-02T13:49:53;10.77;;;2.27;;
58472;SDS011;44775;51.564;5.460;2022-11-02T13:52:43;10.63;;;2.22;;
58472;SDS011;44775;51.564;5.460;2022-11-02T13:55:21;10.98;;;2.30;;
58472;SDS011;44775;51.564;5.460;2022-11-02T13:57:52;10.77;;;2.10;;
58472;SDS011;44775;51.564;5.460;2022-11-02T14:02:46;11.45;;;2.40;;
58472;SDS011;44775;51.564;5.460;2022-11-02T14:05:24;12.07;;;1.98;;
58472;SDS011;44775;51.564;5.460;2022-11-02T14:07:54;13.65;;;2.70;;
58472;SDS011;44775;51.564;5.460;2022-11-02T14:10:25;16.25;;;2.10;;
58472;SDS011;44775;51.564;5.460;2022-11-02T14:12:52;14.77;;;2.70;;
58472;SDS011;44775;51.564;5.460;2022-11-02T14:28:52;12.20;;;2.28;;
58472;SDS011;44775;51.564;5.460;2022-11-02T14:39:17;11.20;;;1.98;;
58472;SDS011;44775;51.564;5.460;2022-11-02T14:42:09;13.10;;;2.33;;
58472;SDS011;44775;51.564;5.460;2022-11-02T14:47:52;13.07;;;2.63;;
58472;SDS011;44775;51.564;5.460;2022-11-02T14:50:21;12.30;;;2.35;;
58472;SDS011;44775;51.564;5.460;2022-11-02T14:55:51;12.57;;;2.60;;
58472;SDS011;44775;51.564;5.460;2022-11-02T14:58:19;10.00;;;2.20;;
58472;SDS011;44775;51.564;5.460;2022-11-02T15:05:58;12.65;;;2.20;;
58472;SDS011;44775;51.564;5.460;2022-11-02T15:08:34;11.70;;;2.17;;
58472;SDS011;44775;51.564;5.460;2022-11-02T15:16:59;14.77;;;2.72;;
58472;SDS011;44775;51.564;5.460;2022-11-02T15:19:46;13.10;;;2.63;;
58472;SDS011;44775;51.564;5.460;2022-11-02T15:24:53;15.88;;;2.53;;
58472;SDS011;44775;51.564;5.460;2022-11-02T15:27:22;14.23;;;2.70;;
58472;SDS011;44775;51.564;5.460;2022-11-02T15:29:48;9.02;;;2.40;;
58472;SDS011;44775;51.564;5.460;2022-11-02T15:32:21;14.20;;;2.20;;
58472;SDS011;44775;51.564;5.460;2022-11-02T15:34:49;14.02;;;2.30;;
58472;SDS011;44775;51.564;5.460;2022-11-02T15:37:24;12.50;;;2.63;;
58472;SDS011;44775;51.564;5.460;2022-11-02T15:39:55;12.88;;;2.38;;
58472;SDS011;44775;51.564;5.460;2022-11-02T15:53:40;19.63;;;5.35;;
58472;SDS011;44775;51.564;5.460;2022-11-02T16:01:36;7.35;;;2.47;;
58472;SDS011;44775;51.564;5.460;2022-11-02T16:04:04;18.27;;;3.90;;
58472;SDS011;44775;51.564;5.460;2022-11-02T16:06:38;14.82;;;3.30;;
58472;SDS011;44775;51.564;5.460;2022-11-02T16:14:35;12.85;;;2.50;;
58472;SDS011;44775;51.564;5.460;2022-11-02T16:17:01;12.05;;;2.95;;
58472;SDS011;44775;51.564;5.460;2022-11-02T16:19:26;12.25;;;3.03;;
58472;SDS011;44775;51.564;5.460;2022-11-02T16:21:52;15.50;;;3.38;;
58472;SDS011;44775;51.564;5.460;2022-11-02T16:24:17;17.20;;;3.35;;
58472;SDS011;44775;51.564;5.460;2022-11-02T16:26:43;16.27;;;2.97;;
58472;SDS011;44775;51.564;5.460;2022-11-02T16:29:10;11.45;;;2.60;;
58472;SDS011;44775;51.564;5.460;2022-11-02T16:31:45;11.77;;;3.03;;
58472;SDS011;44775;51.564;5.460;2022-11-02T16:34:18;17.10;;;4.00;;
58472;SDS011;44775;51.564;5.460;2022-11-02T16:36:46;17.73;;;4.05;;
58472;SDS011;44775;51.564;5.460;2022-11-02T16:41:37;19.35;;;5.32;;
58472;SDS011;44775;51.564;5.460;2022-11-02T16:44:13;15.77;;;4.22;;
58472;SDS011;44775;51.564;5.460;2022-11-02T16:46:52;12.32;;;2.97;;
58472;SDS011;44775;51.564;5.460;2022-11-02T16:52:19;25.00;;;6.32;;
58472;SDS011;44775;51.564;5.460;2022-11-02T16:54:46;18.40;;;5.40;;
58472;SDS011;44775;51.564;5.460;2022-11-02T16:59:48;17.60;;;4.55;;
58472;SDS011;44775;51.564;5.460;2022-11-02T17:02:14;14.32;;;3.60;;
58472;SDS011;44775;51.564;5.460;2022-11-02T17:04:41;11.90;;;3.35;;
58472;SDS011;44775;51.564;5.460;2022-11-02T17:07:41;16.42;;;3.75;;
58472;SDS011;44775;51.564;5.460;2022-11-02T17:10:03;14.60;;;3.20;;
58472;SDS011;44775;51.564;5.460;2022-11-02T17:12:34;9.38;;;2.95;;
58472;SDS011;44775;51.564;5.460;2022-11-02T17:15:07;13.43;;;4.60;;
58472;SDS011;44775;51.564;5.460;2022-11-02T17:17:40;14.45;;;4.03;;
58472;SDS011;44775;51.564;5.460;2022-11-02T17:25:46;15.23;;;4.53;;
58472;SDS011;44775;51.564;5.460;2022-11-02T17:33:55;13.70;;;2.95;;
58472;SDS011;44775;51.564;5.460;2022-11-02T17:36:25;13.45;;;3.08;;
58472;SDS011;44775;51.564;5.460;2022-11-02T17:38:51;13.45;;;2.72;;
58472;SDS011;44775;51.564;5.460;2022-11-02T17:41:18;9.18;;;2.55;;
58472;SDS011;44775;51.564;5.460;2022-11-02T17:44:02;9.70;;;2.95;;
58472;SDS011;44775;51.564;5.460;2022-11-02T17:46:28;12.10;;;3.80;;
58472;SDS011;44775;51.564;5.460;2022-11-02T17:48:54;11.93;;;3.55;;
58472;SDS011;44775;51.564;5.460;2022-11-02T17:51:21;16.63;;;5.45;;
58472;SDS011;44775;51.564;5.460;2022-11-02T17:53:48;13.48;;;5.28;;
58472;SDS011;44775;51.564;5.460;2022-11-02T17:56:14;11.68;;;3.38;;
58472;SDS011;44775;51.564;5.460;2022-11-02T17:58:39;15.77;;;3.88;;
58472;SDS011;44775;51.564;5.460;2022-11-02T18:01:05;11.93;;;3.97;;
58472;SDS011;44775;51.564;5.460;2022-11-02T18:03:30;13.10;;;2.88;;
58472;SDS011;44775;51.564;5.460;2022-11-02T18:05:56;14.20;;;3.60;;
58472;SDS011;44775;51.564;5.460;2022-11-02T18:08:21;21.75;;;5.75;;
58472;SDS011;44775;51.564;5.460;2022-11-02T18:10:49;18.92;;;5.05;;
58472;SDS011;44775;51.564;5.460;2022-11-02T18:15:45;12.45;;;3.28;;
58472;SDS011;44775;51.564;5.460;2022-11-02T18:18:11;13.15;;;2.78;;
58472;SDS011;44775;51.564;5.460;2022-11-02T18:20:37;14.77;;;3.70;;
58472;SDS011;44775;51.564;5.460;2022-11-02T18:23:04;13.38;;;4.03;;
58472;SDS011;44775;51.564;5.460;2022-11-02T18:25:30;16.25;;;3.50;;